sensor_id;sensor_type;location;lat;lon;timestamp;P1;durP1;ratioP1;P2;durP2;ratioP2
20038;SDS011;21737;42.868;25.320;2022-12-29T00:00:13;63.47;;;33.53;;
20038;SDS011;21737;42.868;25.320;2022-12-29T00:03:14;61.20;;;32.77;;
20038;SDS011;21737;42.868;25.320;2022-12-29T00:06:18;60.67;;;30.73;;
20038;SDS011;21737;42.868;25.320;2022-12-29T00:09:19;60.37;;;32.00;;
20038;SDS011;21737;42.868;25.320;2022-12-29T00:12:21;57.07;;;30.97;;
20038;SDS011;21737;42.868;25.320;2022-12-29T00:15:23;56.20;;;30.77;;
20038;SDS011;21737;42.868;25.320;2022-12-29T00:18:40;46.00;;;24.53;;
20038;SDS011;21737;42.868;25.320;2022-12-29T00:21:41;50.33;;;24.97;;
20038;SDS011;21737;42.868;25.320;2022-12-29T00:25:02;38.87;;;21.63;;
20038;SDS011;21737;42.868;25.320;2022-12-29T00:28:22;41.60;;;22.80;;
20038;SDS011;21737;42.868;25.320;2022-12-29T00:31:43;43.27;;;21.87;;
20038;SDS011;21737;42.868;25.320;2022-12-29T00:35:17;44.40;;;24.00;;
20038;SDS011;21737;42.868;25.320;2022-12-29T00:38:20;47.13;;;25.60;;
20038;SDS011;21737;42.868;25.320;2022-12-29T00:41:41;46.87;;;24.20;;
20038;SDS011;21737;42.868;25.320;2022-12-29T00:45:01;41.30;;;20.57;;
20038;SDS011;21737;42.868;25.320;2022-12-29T00:48:03;42.67;;;21.93;;
20038;SDS011;21737;42.868;25.320;2022-12-29T00:51:05;41.07;;;21.37;;
20038;SDS011;21737;42.868;25.320;2022-12-29T00:54:07;39.30;;;18.23;;
20038;SDS011;21737;42.868;25.320;2022-12-29T00:57:10;33.97;;;17.23;;
20038;SDS011;21737;42.868;25.320;2022-12-29T01:00:12;35.07;;;17.00;;
20038;SDS011;21737;42.868;25.320;2022-12-29T01:03:14;32.17;;;15.50;;
20038;SDS011;21737;42.868;25.320;2022-12-29T01:06:16;29.97;;;16.27;;
20038;SDS011;21737;42.868;25.320;2022-12-29T01:09:18;24.67;;;14.17;;
20038;SDS011;21737;42.868;25.320;2022-12-29T01:12:39;24.27;;;13.47;;
20038;SDS011;21737;42.868;25.320;2022-12-29T01:15:50;28.83;;;14.77;;
20038;SDS011;21737;42.868;25.320;2022-12-29T01:18:52;32.30;;;15.80;;
20038;SDS011;21737;42.868;25.320;2022-12-29T01:21:55;33.07;;;15.33;;
20038;SDS011;21737;42.868;25.320;2022-12-29T01:24:57;30.13;;;15.13;;
20038;SDS011;21737;42.868;25.320;2022-12-29T01:27:58;26.77;;;14.83;;
20038;SDS011;21737;42.868;25.320;2022-12-29T01:31:00;38.57;;;19.63;;
20038;SDS011;21737;42.868;25.320;2022-12-29T01:34:02;41.93;;;20.17;;
20038;SDS011;21737;42.868;25.320;2022-12-29T01:37:06;35.00;;;18.30;;
20038;SDS011;21737;42.868;25.320;2022-12-29T01:40:08;36.27;;;18.83;;
20038;SDS011;21737;42.868;25.320;2022-12-29T01:43:10;41.37;;;20.47;;
20038;SDS011;21737;42.868;25.320;2022-12-29T01:49:26;39.33;;;21.30;;
20038;SDS011;21737;42.868;25.320;2022-12-29T01:52:29;42.23;;;23.17;;
20038;SDS011;21737;42.868;25.320;2022-12-29T01:55:33;45.17;;;23.40;;
20038;SDS011;21737;42.868;25.320;2022-12-29T01:58:36;47.87;;;24.17;;
20038;SDS011;21737;42.868;25.320;2022-12-29T02:01:39;48.00;;;24.50;;
20038;SDS011;21737;42.868;25.320;2022-12-29T02:04:41;42.50;;;21.73;;
20038;SDS011;21737;42.868;25.320;2022-12-29T02:07:51;37.73;;;21.47;;
20038;SDS011;21737;42.868;25.320;2022-12-29T02:10:55;38.03;;;21.13;;
20038;SDS011;21737;42.868;25.320;2022-12-29T02:13:57;36.20;;;18.67;;
20038;SDS011;21737;42.868;25.320;2022-12-29T02:23:19;38.77;;;19.60;;
20038;SDS011;21737;42.868;25.320;2022-12-29T02:29:46;35.77;;;20.17;;
20038;SDS011;21737;42.868;25.320;2022-12-29T02:43:33;30.37;;;15.57;;
20038;SDS011;21737;42.868;25.320;2022-12-29T02:46:28;27.70;;;12.23;;
20038;SDS011;21737;42.868;25.320;2022-12-29T02:52:39;26.67;;;14.67;;
20038;SDS011;21737;42.868;25.320;2022-12-29T02:55:47;26.10;;;14.93;;
20038;SDS011;21737;42.868;25.320;2022-12-29T02:58:49;34.47;;;18.30;;
20038;SDS011;21737;42.868;25.320;2022-12-29T03:11:35;27.03;;;14.17;;
20038;SDS011;21737;42.868;25.320;2022-12-29T03:14:59;22.43;;;12.07;;
20038;SDS011;21737;42.868;25.320;2022-12-29T03:18:23;25.53;;;14.33;;
20038;SDS011;21737;42.868;25.320;2022-12-29T03:25:39;17.70;;;11.13;;
20038;SDS011;21737;42.868;25.320;2022-12-29T03:28:22;24.33;;;12.30;;
20038;SDS011;21737;42.868;25.320;2022-12-29T03:31:24;18.00;;;10.67;;
20038;SDS011;21737;42.868;25.320;2022-12-29T03:34:27;21.73;;;10.83;;
20038;SDS011;21737;42.868;25.320;2022-12-29T03:37:37;18.90;;;10.33;;
20038;SDS011;21737;42.868;25.320;2022-12-29T03:40:42;23.77;;;10.63;;
20038;SDS011;21737;42.868;25.320;2022-12-29T03:43:45;18.17;;;10.60;;
20038;SDS011;21737;42.868;25.320;2022-12-29T03:46:47;16.57;;;9.87;;
20038;SDS011;21737;42.868;25.320;2022-12-29T03:49:49;20.70;;;13.07;;
20038;SDS011;21737;42.868;25.320;2022-12-29T03:52:51;20.27;;;12.80;;
20038;SDS011;21737;42.868;25.320;2022-12-29T03:55:52;20.20;;;12.13;;
20038;SDS011;21737;42.868;25.320;2022-12-29T03:58:54;21.63;;;12.97;;
20038;SDS011;21737;42.868;25.320;2022-12-29T04:02:11;23.77;;;12.33;;
20038;SDS011;21737;42.868;25.320;2022-12-29T04:05:13;31.30;;;12.97;;
20038;SDS011;21737;42.868;25.320;2022-12-29T04:08:15;23.00;;;12.67;;
20038;SDS011;21737;42.868;25.320;2022-12-29T04:11:17;21.97;;;11.20;;
20038;SDS011;21737;42.868;25.320;2022-12-29T04:14:19;20.53;;;12.30;;
20038;SDS011;21737;42.868;25.320;2022-12-29T04:17:21;28.77;;;12.00;;
20038;SDS011;21737;42.868;25.320;2022-12-29T04:20:25;22.00;;;11.27;;
20038;SDS011;21737;42.868;25.320;2022-12-29T04:23:46;23.60;;;11.87;;
20038;SDS011;21737;42.868;25.320;2022-12-29T04:26:50;21.33;;;12.87;;
20038;SDS011;21737;42.868;25.320;2022-12-29T04:30:07;22.67;;;12.57;;
20038;SDS011;21737;42.868;25.320;2022-12-29T04:33:19;21.67;;;13.20;;
20038;SDS011;21737;42.868;25.320;2022-12-29T04:36:22;22.60;;;13.20;;
20038;SDS011;21737;42.868;25.320;2022-12-29T04:39:30;18.73;;;10.83;;
20038;SDS011;21737;42.868;25.320;2022-12-29T04:42:33;16.40;;;10.07;;
20038;SDS011;21737;42.868;25.320;2022-12-29T04:45:35;18.17;;;10.23;;
20038;SDS011;21737;42.868;25.320;2022-12-29T04:48:44;18.17;;;10.63;;
20038;SDS011;21737;42.868;25.320;2022-12-29T04:52:05;22.50;;;13.60;;
20038;SDS011;21737;42.868;25.320;2022-12-29T04:55:08;31.13;;;19.37;;
20038;SDS011;21737;42.868;25.320;2022-12-29T04:58:09;27.07;;;15.43;;
20038;SDS011;21737;42.868;25.320;2022-12-29T05:01:11;35.10;;;19.47;;
20038;SDS011;21737;42.868;25.320;2022-12-29T05:04:14;30.07;;;18.47;;
20038;SDS011;21737;42.868;25.320;2022-12-29T05:07:17;35.40;;;20.50;;
20038;SDS011;21737;42.868;25.320;2022-12-29T05:10:19;40.33;;;19.13;;
20038;SDS011;21737;42.868;25.320;2022-12-29T05:13:23;88.90;;;31.20;;
20038;SDS011;21737;42.868;25.320;2022-12-29T05:16:25;80.70;;;27.20;;
20038;SDS011;21737;42.868;25.320;2022-12-29T05:19:27;126.57;;;35.37;;
20038;SDS011;21737;42.868;25.320;2022-12-29T05:22:29;86.90;;;30.40;;
20038;SDS011;21737;42.868;25.320;2022-12-29T05:25:31;74.83;;;28.97;;
20038;SDS011;21737;42.868;25.320;2022-12-29T05:28:52;68.90;;;25.93;;
20038;SDS011;21737;42.868;25.320;2022-12-29T05:31:53;35.30;;;19.53;;
20038;SDS011;21737;42.868;25.320;2022-12-29T05:34:55;39.87;;;23.23;;
20038;SDS011;21737;42.868;25.320;2022-12-29T05:37:58;42.00;;;23.37;;
20038;SDS011;21737;42.868;25.320;2022-12-29T05:41:00;35.60;;;19.57;;
20038;SDS011;21737;42.868;25.320;2022-12-29T05:44:21;36.90;;;20.30;;
20038;SDS011;21737;42.868;25.320;2022-12-29T05:47:43;35.93;;;20.17;;
20038;SDS011;21737;42.868;25.320;2022-12-29T05:51:06;38.90;;;20.33;;
20038;SDS011;21737;42.868;25.320;2022-12-29T05:54:26;41.03;;;21.63;;
20038;SDS011;21737;42.868;25.320;2022-12-29T05:57:30;36.60;;;22.47;;
20038;SDS011;21737;42.868;25.320;2022-12-29T06:00:42;61.33;;;30.87;;
20038;SDS011;21737;42.868;25.320;2022-12-29T06:03:44;42.17;;;23.93;;
20038;SDS011;21737;42.868;25.320;2022-12-29T06:06:51;47.37;;;26.17;;
20038;SDS011;21737;42.868;25.320;2022-12-29T06:10:01;46.47;;;24.83;;
20038;SDS011;21737;42.868;25.320;2022-12-29T06:13:06;49.97;;;27.23;;
20038;SDS011;21737;42.868;25.320;2022-12-29T06:16:11;46.10;;;23.23;;
20038;SDS011;21737;42.868;25.320;2022-12-29T06:19:13;47.90;;;24.47;;
20038;SDS011;21737;42.868;25.320;2022-12-29T06:22:15;68.53;;;34.30;;
20038;SDS011;21737;42.868;25.320;2022-12-29T06:25:17;39.63;;;21.30;;
20038;SDS011;21737;42.868;25.320;2022-12-29T06:28:19;47.40;;;25.40;;
20038;SDS011;21737;42.868;25.320;2022-12-29T06:31:20;48.73;;;26.13;;
20038;SDS011;21737;42.868;25.320;2022-12-29T06:34:23;42.23;;;21.80;;
20038;SDS011;21737;42.868;25.320;2022-12-29T06:37:25;38.37;;;20.07;;
20038;SDS011;21737;42.868;25.320;2022-12-29T06:40:26;36.13;;;18.60;;
20038;SDS011;21737;42.868;25.320;2022-12-29T06:43:44;51.13;;;27.17;;
20038;SDS011;21737;42.868;25.320;2022-12-29T06:47:03;55.53;;;30.17;;
20038;SDS011;21737;42.868;25.320;2022-12-29T06:50:05;59.37;;;30.90;;
20038;SDS011;21737;42.868;25.320;2022-12-29T06:53:07;46.40;;;25.07;;
20038;SDS011;21737;42.868;25.320;2022-12-29T06:56:11;48.50;;;26.27;;
20038;SDS011;21737;42.868;25.320;2022-12-29T06:59:13;46.27;;;24.17;;
20038;SDS011;21737;42.868;25.320;2022-12-29T07:02:15;29.90;;;17.07;;
20038;SDS011;21737;42.868;25.320;2022-12-29T07:05:19;29.37;;;17.30;;
20038;SDS011;21737;42.868;25.320;2022-12-29T07:08:21;36.37;;;20.43;;
20038;SDS011;21737;42.868;25.320;2022-12-29T07:11:23;34.83;;;19.60;;
20038;SDS011;21737;42.868;25.320;2022-12-29T07:14:24;34.67;;;19.97;;
20038;SDS011;21737;42.868;25.320;2022-12-29T07:17:26;41.53;;;21.07;;
20038;SDS011;21737;42.868;25.320;2022-12-29T07:20:28;48.80;;;27.50;;
20038;SDS011;21737;42.868;25.320;2022-12-29T07:23:29;60.30;;;32.10;;
20038;SDS011;21737;42.868;25.320;2022-12-29T07:26:31;58.40;;;31.57;;
20038;SDS011;21737;42.868;25.320;2022-12-29T07:29:37;56.23;;;28.13;;
20038;SDS011;21737;42.868;25.320;2022-12-29T07:32:38;66.27;;;33.13;;
20038;SDS011;21737;42.868;25.320;2022-12-29T07:35:40;64.70;;;32.23;;
20038;SDS011;21737;42.868;25.320;2022-12-29T07:38:42;132.53;;;65.60;;
20038;SDS011;21737;42.868;25.320;2022-12-29T07:41:43;157.93;;;79.50;;
20038;SDS011;21737;42.868;25.320;2022-12-29T07:44:50;70.10;;;38.20;;
20038;SDS011;21737;42.868;25.320;2022-12-29T07:47:58;97.43;;;48.33;;
20038;SDS011;21737;42.868;25.320;2022-12-29T07:51:00;68.37;;;33.27;;
20038;SDS011;21737;42.868;25.320;2022-12-29T07:54:02;84.70;;;37.80;;
20038;SDS011;21737;42.868;25.320;2022-12-29T07:57:04;172.80;;;84.77;;
20038;SDS011;21737;42.868;25.320;2022-12-29T08:00:05;130.10;;;57.10;;
20038;SDS011;21737;42.868;25.320;2022-12-29T08:03:12;92.70;;;43.00;;
20038;SDS011;21737;42.868;25.320;2022-12-29T08:06:13;145.87;;;69.03;;
20038;SDS011;21737;42.868;25.320;2022-12-29T08:09:15;166.90;;;78.33;;
20038;SDS011;21737;42.868;25.320;2022-12-29T08:12:23;231.17;;;108.53;;
20038;SDS011;21737;42.868;25.320;2022-12-29T08:15:25;87.07;;;47.50;;
20038;SDS011;21737;42.868;25.320;2022-12-29T08:18:32;67.30;;;40.43;;
20038;SDS011;21737;42.868;25.320;2022-12-29T08:21:34;78.63;;;47.17;;
20038;SDS011;21737;42.868;25.320;2022-12-29T08:24:36;67.70;;;41.40;;
20038;SDS011;21737;42.868;25.320;2022-12-29T08:27:38;84.70;;;43.30;;
20038;SDS011;21737;42.868;25.320;2022-12-29T08:30:39;89.50;;;62.97;;
20038;SDS011;21737;42.868;25.320;2022-12-29T08:33:41;71.77;;;44.17;;
20038;SDS011;21737;42.868;25.320;2022-12-29T08:36:43;68.40;;;45.10;;
20038;SDS011;21737;42.868;25.320;2022-12-29T08:39:44;93.50;;;56.40;;
20038;SDS011;21737;42.868;25.320;2022-12-29T08:42:46;59.40;;;39.00;;
20038;SDS011;21737;42.868;25.320;2022-12-29T08:45:47;62.13;;;34.20;;
20038;SDS011;21737;42.868;25.320;2022-12-29T08:48:49;52.80;;;33.33;;
20038;SDS011;21737;42.868;25.320;2022-12-29T08:51:51;57.80;;;33.60;;
20038;SDS011;21737;42.868;25.320;2022-12-29T08:54:52;63.53;;;36.57;;
20038;SDS011;21737;42.868;25.320;2022-12-29T08:57:55;52.50;;;31.97;;
20038;SDS011;21737;42.868;25.320;2022-12-29T09:00:58;46.17;;;26.63;;
20038;SDS011;21737;42.868;25.320;2022-12-29T09:04:00;87.60;;;47.10;;
20038;SDS011;21737;42.868;25.320;2022-12-29T09:07:18;50.40;;;28.93;;
20038;SDS011;21737;42.868;25.320;2022-12-29T09:10:20;47.50;;;28.33;;
20038;SDS011;21737;42.868;25.320;2022-12-29T09:13:22;30.53;;;19.10;;
20038;SDS011;21737;42.868;25.320;2022-12-29T09:16:24;41.67;;;25.57;;
20038;SDS011;21737;42.868;25.320;2022-12-29T09:19:25;45.67;;;32.57;;
20038;SDS011;21737;42.868;25.320;2022-12-29T09:22:27;46.47;;;26.47;;
20038;SDS011;21737;42.868;25.320;2022-12-29T09:25:29;43.57;;;27.43;;
20038;SDS011;21737;42.868;25.320;2022-12-29T09:28:30;31.33;;;17.77;;
20038;SDS011;21737;42.868;25.320;2022-12-29T09:31:32;25.73;;;16.63;;
20038;SDS011;21737;42.868;25.320;2022-12-29T09:34:34;37.77;;;20.67;;
20038;SDS011;21737;42.868;25.320;2022-12-29T09:37:36;35.17;;;23.53;;
20038;SDS011;21737;42.868;25.320;2022-12-29T09:40:37;36.33;;;22.07;;
20038;SDS011;21737;42.868;25.320;2022-12-29T09:47:01;48.40;;;33.90;;
20038;SDS011;21737;42.868;25.320;2022-12-29T09:50:10;36.60;;;23.20;;
20038;SDS011;21737;42.868;25.320;2022-12-29T09:56:47;28.67;;;18.70;;
20038;SDS011;21737;42.868;25.320;2022-12-29T09:59:50;50.33;;;34.30;;
20038;SDS011;21737;42.868;25.320;2022-12-29T10:02:53;69.63;;;45.10;;
20038;SDS011;21737;42.868;25.320;2022-12-29T10:25:02;33.27;;;17.67;;
20038;SDS011;21737;42.868;25.320;2022-12-29T10:28:09;35.87;;;18.10;;
20038;SDS011;21737;42.868;25.320;2022-12-29T10:31:15;23.13;;;14.27;;
20038;SDS011;21737;42.868;25.320;2022-12-29T10:40:42;27.13;;;17.03;;
20038;SDS011;21737;42.868;25.320;2022-12-29T10:43:48;30.60;;;14.63;;
20038;SDS011;21737;42.868;25.320;2022-12-29T10:46:58;14.70;;;10.30;;
20038;SDS011;21737;42.868;25.320;2022-12-29T10:50:02;14.17;;;8.27;;
20038;SDS011;21737;42.868;25.320;2022-12-29T10:53:04;16.53;;;9.93;;
20038;SDS011;21737;42.868;25.320;2022-12-29T10:56:11;20.33;;;12.50;;
20038;SDS011;21737;42.868;25.320;2022-12-29T11:09:07;16.70;;;10.40;;
20038;SDS011;21737;42.868;25.320;2022-12-29T11:12:27;15.07;;;9.03;;
20038;SDS011;21737;42.868;25.320;2022-12-29T11:15:42;25.13;;;9.73;;
20038;SDS011;21737;42.868;25.320;2022-12-29T11:18:43;12.77;;;8.20;;
20038;SDS011;21737;42.868;25.320;2022-12-29T11:21:47;13.47;;;8.10;;
20038;SDS011;21737;42.868;25.320;2022-12-29T11:24:49;15.17;;;8.87;;
20038;SDS011;21737;42.868;25.320;2022-12-29T11:27:55;27.60;;;15.00;;
20038;SDS011;21737;42.868;25.320;2022-12-29T11:31:01;16.27;;;7.67;;
20038;SDS011;21737;42.868;25.320;2022-12-29T11:34:05;20.10;;;10.30;;
20038;SDS011;21737;42.868;25.320;2022-12-29T11:40:18;16.33;;;9.80;;
20038;SDS011;21737;42.868;25.320;2022-12-29T11:43:31;20.63;;;9.17;;
20038;SDS011;21737;42.868;25.320;2022-12-29T11:46:36;22.87;;;12.20;;
20038;SDS011;21737;42.868;25.320;2022-12-29T11:49:39;21.17;;;12.97;;
20038;SDS011;21737;42.868;25.320;2022-12-29T11:52:41;12.20;;;8.57;;
20038;SDS011;21737;42.868;25.320;2022-12-29T11:55:53;18.00;;;10.20;;
20038;SDS011;21737;42.868;25.320;2022-12-29T11:58:55;15.93;;;9.50;;
20038;SDS011;21737;42.868;25.320;2022-12-29T12:01:58;22.93;;;12.60;;
20038;SDS011;21737;42.868;25.320;2022-12-29T12:05:05;16.27;;;9.90;;
20038;SDS011;21737;42.868;25.320;2022-12-29T12:11:14;20.73;;;10.97;;
20038;SDS011;21737;42.868;25.320;2022-12-29T12:17:47;11.87;;;7.60;;
20038;SDS011;21737;42.868;25.320;2022-12-29T12:20:52;11.87;;;7.77;;
20038;SDS011;21737;42.868;25.320;2022-12-29T12:30:28;13.70;;;9.03;;
20038;SDS011;21737;42.868;25.320;2022-12-29T12:33:33;18.67;;;10.27;;
20038;SDS011;21737;42.868;25.320;2022-12-29T12:36:43;22.03;;;13.53;;
20038;SDS011;21737;42.868;25.320;2022-12-29T13:18:46;19.13;;;13.70;;
20038;SDS011;21737;42.868;25.320;2022-12-29T13:21:59;22.57;;;14.70;;
20038;SDS011;21737;42.868;25.320;2022-12-29T13:37:56;28.47;;;16.33;;
20038;SDS011;21737;42.868;25.320;2022-12-29T13:41:06;25.37;;;16.80;;
20038;SDS011;21737;42.868;25.320;2022-12-29T13:44:10;35.07;;;22.03;;
20038;SDS011;21737;42.868;25.320;2022-12-29T13:47:49;42.60;;;19.70;;
20038;SDS011;21737;42.868;25.320;2022-12-29T13:50:44;34.83;;;19.87;;
20038;SDS011;21737;42.868;25.320;2022-12-29T13:57:10;34.63;;;21.37;;
20038;SDS011;21737;42.868;25.320;2022-12-29T14:00:16;32.90;;;20.37;;
20038;SDS011;21737;42.868;25.320;2022-12-29T14:06:30;40.00;;;22.47;;
20038;SDS011;21737;42.868;25.320;2022-12-29T14:12:42;49.10;;;27.47;;
20038;SDS011;21737;42.868;25.320;2022-12-29T14:15:46;46.97;;;23.60;;
20038;SDS011;21737;42.868;25.320;2022-12-29T14:18:52;42.50;;;22.10;;
20038;SDS011;21737;42.868;25.320;2022-12-29T14:21:56;37.00;;;18.60;;
20038;SDS011;21737;42.868;25.320;2022-12-29T14:24:58;40.67;;;19.60;;
20038;SDS011;21737;42.868;25.320;2022-12-29T14:28:00;39.80;;;17.57;;
20038;SDS011;21737;42.868;25.320;2022-12-29T14:37:29;58.40;;;35.97;;
20038;SDS011;21737;42.868;25.320;2022-12-29T14:40:31;52.77;;;31.30;;
20038;SDS011;21737;42.868;25.320;2022-12-29T14:43:35;80.87;;;46.67;;
20038;SDS011;21737;42.868;25.320;2022-12-29T14:49:50;49.13;;;30.70;;
20038;SDS011;21737;42.868;25.320;2022-12-29T14:52:56;68.60;;;38.20;;
20038;SDS011;21737;42.868;25.320;2022-12-29T14:56:04;103.77;;;57.63;;
20038;SDS011;21737;42.868;25.320;2022-12-29T14:59:08;94.60;;;52.57;;
20038;SDS011;21737;42.868;25.320;2022-12-29T15:02:18;106.67;;;53.20;;
20038;SDS011;21737;42.868;25.320;2022-12-29T15:05:26;124.67;;;63.07;;
20038;SDS011;21737;42.868;25.320;2022-12-29T15:08:30;138.37;;;60.33;;
20038;SDS011;21737;42.868;25.320;2022-12-29T15:14:35;82.90;;;46.73;;
20038;SDS011;21737;42.868;25.320;2022-12-29T15:17:37;64.47;;;37.57;;
20038;SDS011;21737;42.868;25.320;2022-12-29T15:20:39;78.87;;;45.03;;
20038;SDS011;21737;42.868;25.320;2022-12-29T15:23:44;81.00;;;46.37;;
20038;SDS011;21737;42.868;25.320;2022-12-29T15:26:46;91.27;;;50.13;;
20038;SDS011;21737;42.868;25.320;2022-12-29T15:29:55;91.23;;;49.10;;
20038;SDS011;21737;42.868;25.320;2022-12-29T15:32:57;88.20;;;48.70;;
20038;SDS011;21737;42.868;25.320;2022-12-29T15:36:02;89.30;;;47.83;;
20038;SDS011;21737;42.868;25.320;2022-12-29T15:45:27;90.23;;;49.53;;
20038;SDS011;21737;42.868;25.320;2022-12-29T15:48:30;94.60;;;52.23;;
20038;SDS011;21737;42.868;25.320;2022-12-29T15:51:36;92.53;;;50.07;;
20038;SDS011;21737;42.868;25.320;2022-12-29T15:54:38;88.73;;;51.47;;
20038;SDS011;21737;42.868;25.320;2022-12-29T15:57:43;94.73;;;51.63;;
20038;SDS011;21737;42.868;25.320;2022-12-29T16:00:52;99.17;;;54.10;;
20038;SDS011;21737;42.868;25.320;2022-12-29T16:03:54;107.10;;;56.23;;
20038;SDS011;21737;42.868;25.320;2022-12-29T16:06:58;98.83;;;52.00;;
20038;SDS011;21737;42.868;25.320;2022-12-29T16:10:00;89.43;;;49.00;;
20038;SDS011;21737;42.868;25.320;2022-12-29T16:13:10;83.40;;;47.63;;
20038;SDS011;21737;42.868;25.320;2022-12-29T16:16:28;91.30;;;48.63;;
20038;SDS011;21737;42.868;25.320;2022-12-29T16:19:35;71.47;;;39.83;;
20038;SDS011;21737;42.868;25.320;2022-12-29T16:22:41;58.00;;;33.70;;
20038;SDS011;21737;42.868;25.320;2022-12-29T16:25:45;51.13;;;30.93;;
20038;SDS011;21737;42.868;25.320;2022-12-29T16:28:47;60.33;;;34.63;;
20038;SDS011;21737;42.868;25.320;2022-12-29T16:31:57;88.53;;;44.57;;
20038;SDS011;21737;42.868;25.320;2022-12-29T16:35:09;70.63;;;39.27;;
20038;SDS011;21737;42.868;25.320;2022-12-29T16:41:28;58.30;;;33.33;;
20038;SDS011;21737;42.868;25.320;2022-12-29T16:44:30;71.43;;;40.67;;
20038;SDS011;21737;42.868;25.320;2022-12-29T16:47:31;71.27;;;39.23;;
20038;SDS011;21737;42.868;25.320;2022-12-29T16:50:34;64.37;;;36.00;;
20038;SDS011;21737;42.868;25.320;2022-12-29T16:53:39;73.87;;;39.40;;
20038;SDS011;21737;42.868;25.320;2022-12-29T16:56:43;81.90;;;40.80;;
20038;SDS011;21737;42.868;25.320;2022-12-29T16:59:45;96.40;;;47.17;;
20038;SDS011;21737;42.868;25.320;2022-12-29T17:02:47;82.33;;;41.90;;
20038;SDS011;21737;42.868;25.320;2022-12-29T17:05:50;69.27;;;36.33;;
20038;SDS011;21737;42.868;25.320;2022-12-29T17:08:58;75.40;;;42.53;;
20038;SDS011;21737;42.868;25.320;2022-12-29T17:12:00;74.30;;;40.50;;
20038;SDS011;21737;42.868;25.320;2022-12-29T17:15:15;73.87;;;38.20;;
20038;SDS011;21737;42.868;25.320;2022-12-29T17:18:21;82.53;;;45.10;;
20038;SDS011;21737;42.868;25.320;2022-12-29T17:21:22;76.03;;;41.73;;
20038;SDS011;21737;42.868;25.320;2022-12-29T17:24:24;60.70;;;33.27;;
20038;SDS011;21737;42.868;25.320;2022-12-29T17:27:27;57.60;;;30.33;;
20038;SDS011;21737;42.868;25.320;2022-12-29T17:30:30;68.50;;;35.87;;
20038;SDS011;21737;42.868;25.320;2022-12-29T17:33:35;59.07;;;30.63;;
20038;SDS011;21737;42.868;25.320;2022-12-29T17:36:37;48.97;;;26.43;;
20038;SDS011;21737;42.868;25.320;2022-12-29T17:39:39;51.17;;;27.63;;
20038;SDS011;21737;42.868;25.320;2022-12-29T17:42:42;63.73;;;34.37;;
20038;SDS011;21737;42.868;25.320;2022-12-29T17:45:43;72.60;;;38.83;;
20038;SDS011;21737;42.868;25.320;2022-12-29T17:48:47;72.47;;;40.17;;
20038;SDS011;21737;42.868;25.320;2022-12-29T17:51:54;68.00;;;37.27;;
20038;SDS011;21737;42.868;25.320;2022-12-29T17:54:55;73.67;;;40.30;;
20038;SDS011;21737;42.868;25.320;2022-12-29T17:57:57;60.43;;;35.07;;
20038;SDS011;21737;42.868;25.320;2022-12-29T18:01:00;75.27;;;40.50;;
20038;SDS011;21737;42.868;25.320;2022-12-29T18:04:02;39.90;;;21.07;;
20038;SDS011;21737;42.868;25.320;2022-12-29T18:07:08;66.33;;;32.30;;
20038;SDS011;21737;42.868;25.320;2022-12-29T18:10:10;65.27;;;33.77;;
20038;SDS011;21737;42.868;25.320;2022-12-29T18:13:20;54.80;;;30.13;;
20038;SDS011;21737;42.868;25.320;2022-12-29T18:16:22;66.93;;;34.23;;
20038;SDS011;21737;42.868;25.320;2022-12-29T18:19:24;55.93;;;31.47;;
20038;SDS011;21737;42.868;25.320;2022-12-29T18:22:31;61.67;;;37.70;;
20038;SDS011;21737;42.868;25.320;2022-12-29T18:28:34;75.27;;;45.57;;
20038;SDS011;21737;42.868;25.320;2022-12-29T18:31:36;60.03;;;34.80;;
20038;SDS011;21737;42.868;25.320;2022-12-29T18:34:38;64.83;;;37.03;;
20038;SDS011;21737;42.868;25.320;2022-12-29T18:37:40;53.97;;;28.43;;
20038;SDS011;21737;42.868;25.320;2022-12-29T18:40:41;50.37;;;29.10;;
20038;SDS011;21737;42.868;25.320;2022-12-29T18:43:43;36.47;;;22.30;;
20038;SDS011;21737;42.868;25.320;2022-12-29T18:46:45;41.47;;;23.53;;
20038;SDS011;21737;42.868;25.320;2022-12-29T18:49:46;54.60;;;32.17;;
20038;SDS011;21737;42.868;25.320;2022-12-29T18:52:48;48.30;;;27.00;;
20038;SDS011;21737;42.868;25.320;2022-12-29T18:55:50;44.87;;;25.83;;
20038;SDS011;21737;42.868;25.320;2022-12-29T18:58:52;53.83;;;29.80;;
20038;SDS011;21737;42.868;25.320;2022-12-29T19:01:54;61.97;;;32.33;;
20038;SDS011;21737;42.868;25.320;2022-12-29T19:04:55;57.47;;;30.63;;
20038;SDS011;21737;42.868;25.320;2022-12-29T19:08:07;36.70;;;21.60;;
20038;SDS011;21737;42.868;25.320;2022-12-29T19:11:09;50.57;;;28.93;;
20038;SDS011;21737;42.868;25.320;2022-12-29T19:14:13;61.53;;;35.33;;
20038;SDS011;21737;42.868;25.320;2022-12-29T19:17:15;75.13;;;44.07;;
20038;SDS011;21737;42.868;25.320;2022-12-29T19:20:25;68.37;;;37.73;;
20038;SDS011;21737;42.868;25.320;2022-12-29T19:23:27;50.00;;;29.90;;
20038;SDS011;21737;42.868;25.320;2022-12-29T19:26:30;32.87;;;18.40;;
20038;SDS011;21737;42.868;25.320;2022-12-29T19:29:32;39.27;;;20.87;;
20038;SDS011;21737;42.868;25.320;2022-12-29T19:32:33;40.03;;;23.53;;
20038;SDS011;21737;42.868;25.320;2022-12-29T19:35:35;37.10;;;22.43;;
20038;SDS011;21737;42.868;25.320;2022-12-29T19:38:37;36.83;;;21.57;;
20038;SDS011;21737;42.868;25.320;2022-12-29T19:41:38;33.93;;;18.87;;
20038;SDS011;21737;42.868;25.320;2022-12-29T19:44:40;47.90;;;25.20;;
20038;SDS011;21737;42.868;25.320;2022-12-29T19:47:42;53.00;;;28.10;;
20038;SDS011;21737;42.868;25.320;2022-12-29T19:50:44;51.50;;;27.17;;
20038;SDS011;21737;42.868;25.320;2022-12-29T19:53:46;48.17;;;27.40;;
20038;SDS011;21737;42.868;25.320;2022-12-29T19:56:47;53.03;;;29.20;;
20038;SDS011;21737;42.868;25.320;2022-12-29T19:59:52;43.63;;;21.37;;
20038;SDS011;21737;42.868;25.320;2022-12-29T20:02:54;49.60;;;27.37;;
20038;SDS011;21737;42.868;25.320;2022-12-29T20:05:55;49.60;;;25.73;;
20038;SDS011;21737;42.868;25.320;2022-12-29T20:08:57;35.57;;;18.23;;
20038;SDS011;21737;42.868;25.320;2022-12-29T20:12:01;44.57;;;22.90;;
20038;SDS011;21737;42.868;25.320;2022-12-29T20:15:04;34.27;;;18.33;;
20038;SDS011;21737;42.868;25.320;2022-12-29T20:18:06;31.17;;;18.77;;
20038;SDS011;21737;42.868;25.320;2022-12-29T20:21:18;29.67;;;16.77;;
20038;SDS011;21737;42.868;25.320;2022-12-29T20:24:20;38.63;;;21.73;;
20038;SDS011;21737;42.868;25.320;2022-12-29T20:27:22;57.57;;;27.57;;
20038;SDS011;21737;42.868;25.320;2022-12-29T20:30:24;37.23;;;20.60;;
20038;SDS011;21737;42.868;25.320;2022-12-29T20:33:26;42.47;;;23.50;;
20038;SDS011;21737;42.868;25.320;2022-12-29T20:36:29;43.23;;;23.20;;
20038;SDS011;21737;42.868;25.320;2022-12-29T20:39:31;42.97;;;25.53;;
20038;SDS011;21737;42.868;25.320;2022-12-29T20:42:33;42.03;;;21.53;;
20038;SDS011;21737;42.868;25.320;2022-12-29T20:45:35;32.13;;;17.43;;
20038;SDS011;21737;42.868;25.320;2022-12-29T20:48:36;45.53;;;25.90;;